Holcomb Village, California
Current Conditions -  °F | °C
As of 1:35 PM on Saturday 25 Oct 2014 (Local Time) from KF70 Reporting Station
Clear Clear  
Wind Chill: 84°   Ceiling: Unl
Heat Index: 84°   Visibility: 10mi
Dew Point: 46°   Wind: 9mph
Humidity: 27%   Direction: 200°SSW
Pressure: 30.03"   Gusts: NA
Location:  33.4517°N, 116.849°W
Report Text: KF70 252035Z AUTO 20008KT 180V240 10SM CLR 29/08 A3003 RMK AO1
Loading
Personal Weather Stations






























Interactive Weather Map
Tropical Storm Tracking
New forecast layout! Learn more

10-Day Weather Forecast

Advertisements
Track Severe Weather on mobile